Etusivu
METAR-TAF:

METAR-TAF

Lentoasemat :

Valladolid, Espanja

Leveyspiiri: 41-43N, Pituuspiiri: 004-51W, korkeus merenpinnasta: 849 m

Tämänhetkinen sää

Tämä raportti tehtiin 7 tuntia ja 56 minuuttia sitten, kello 19.30 UTC
Tuuli 13 kn idästä, vaihdellen koillisen ja idän/kaakon välillä
Lämpötila 15°C
Kosteus 67%
Ilmanpaine 1022 hPa
Näkyvyys 10 km tai enemmän
ei pilviä alle 1500 m:ssä eikä cumulonimbus-pilviä

METAR: LEVD 201930Z 08013KT 050V110 CAVOK 15/09 Q1022

Aika: 05:26 (03:26 UTC)

Sääennuste

Tämä raportti tehtiin 4 tuntia ja 26 minuuttia sitten, kello 23.00 UTC
Ennuste voimassa 21. päivästä klo 00 UTC - 21. päivään klo 24 UTC
Tuuli 9 kn idästä
Näkyvyys 10 km tai enemmän
Muutamia pilviä 4000 ft:n korkeudessa

TAF: LEVD 202300Z 2100/2124 08009KT 9999 FEW040 TX24/2115Z TN12/2106Z

Säähavainnot ja -ennusteet yli 4000 lentoasemalta (METAR- ja TAF-raportit).

Käytössä olevat sääasemat on merkitty karttaan keltaisilla ja punaisilla pisteillä.

Aseta hiiri pisteen päälle nähdäksesi sääaseman nimen.

Klikkaa sitten nähdäksesi säähavainnot ja -ennusteet.

Kartan vaihtaminen: klikkaa mustalla rastilla varustettuja vihreitä pisteitä, niin voit zoomata sisään; viivalla varustettua vihreää pistettä, niin voit zoomata ulos tai vihreitä nuolia, niin pääset viereisille kartoille.


METAR-TAF: